Historyczne dane pomiarowe

Dodano dane terminowe – wersja testowa.

Dane z okresu 1951-2019

Wersja bazy: 1.34 [2019-03-16, lista zmian], aktualizacja planowana na 2019-04-15

Dane meteo z obszaru Polski uzyskane na podstawie danych udostępnionych przez Instytut Meteorologii i Gospodarki Wodnej – Państwowy Instytut Badawczy.

 

Wybierz Datę:    

       

TemperaturaWilgotnośćWiatrCiśnienieOpadyŚniegCzas trwania zjawisk
 Stacja t tx tn tng RH VA  wxwx mslp ppp RRR   cm mm wxwxwxwxwxwxwx
1961-08-14 15.0 18.7 9.6--- 4.7 3.7---- 0.0------------
1961-08-13 14.3 19.1 12.6--- 6.0 4.0---- 0.0------------
1961-08-12 17.3 21.4 12.1--- 7.7 3.0---- 1.3------------
1961-08-11 17.9 22.8 15.0--- 8.0 4.0---- 12.2------------
1961-08-10 19.0 23.9 12.6--- 3.0 3.0---- 4.2------------
1961-08-09 20.3 25.7 13.7--- 5.7 3.7---- 2.5------------
1961-08-08 16.4 20.7 12.6--- 4.0 5.3---- 0.0------------
1961-08-07 18.5 25.6 13.4--- 7.7 4.0---- 0.0------------
1961-08-06 22.1 28.7 12.0--- 4.3 4.7---- 1.0------------
1961-08-05 15.3 21.4 12.4--- 4.7 6.0---- 0.0------------
1961-08-04 15.4 20.3 11.4--- 5.7 4.3---- 0.2------------
1961-08-03 17.7 23.3 13.0--- 5.3 3.3---- 7.0------------
1961-08-02 18.0 23.9 10.1--- 3.0 3.7---- 0.0------------
1961-08-01 13.4 16.7 12.1--- 8.0 8.3---- 1.3------------
1961-07-31 16.8 20.1 11.6--- 6.3 6.7---- 0.0------------
1961-07-30 13.8 14.7 12.1--- 8.0 4.0---- 15.0------------
1961-07-29 14.6 17.9 12.6--- 6.0 2.7---- 10.0------------
1961-07-28 15.7 17.7 11.6--- 5.7 2.7---- 8.5------------
1961-07-27 17.8 22.7 11.6--- 6.3 2.3---- 3.0------------
1961-07-26 14.4 17.5 11.1--- 5.3 3.7---- 0.0------------
1961-07-25 14.6 17.7 10.1--- 4.0 3.7---- 0.0------------
1961-07-24 15.9 20.9 14.1--- 4.7 5.7---- 0.2------------
1961-07-23 15.7 18.3 14.6--- 7.3 5.0---- 0.0------------
1961-07-22 18.3 22.3 10.6--- 6.7 3.3---- 8.0------------
1961-07-21 17.7 22.7 10.6--- 3.3 2.7---- 5.0------------
1961-07-20 17.8 22.7 10.1--- 7.0 4.7---- 0.0------------
1961-07-19 16.5 20.7 9.6--- 5.0 3.7---- 18.0------------
1961-07-18 16.6 22.7 10.1--- 6.0 4.0---- 0.0------------
1961-07-17 16.8 20.5 11.6--- 5.0 5.0---- 0.0------------
1961-07-16 18.3 23.7 7.6--- 3.7 1.0---- 0.0------------
1961-07-15 18.4 23.9 8.1--- 4.0 2.3---- 0.0------------
1961-07-14 13.9 24.7 11.1--- 5.3 9.0---- 0.0------------
1961-07-13 16.6 25.2 9.1--- 6.0 2.7---- 0.0------------
1961-07-12 15.4 19.6 9.1--- 6.0 0.7---- 5.2------------
1961-07-11 14.5 18.7 8.6--- 3.7 7.3---- 0.3------------
1961-07-10 15.3 18.5 12.6--- 6.7 8.3---- 0.0------------
1961-07-09 16.5 24.7 10.6--- 3.3 3.3---- 0.2------------
1961-07-08 15.4 19.3 10.2--- 6.3 3.3---- 0.0------------
1961-07-07 13.7 21.7 8.0--- 5.0 5.7---- 0.0------------
1961-07-06 12.7 17.8 7.8--- 4.7 4.0---- 0.0------------
1961-07-05 14.1 18.9 12.1--- 6.3 5.7---- 0.0------------
1961-07-04 19.4 23.9 16.7--- 5.3 3.3---- 1.2------------
1961-07-03 21.8 28.1 12.5--- 2.7 4.3---- 0.8------------
1961-07-02 20.2 26.4 10.1--- 1.0 4.0---- 0.0------------
1961-07-01 16.6 22.4 9.4--- 4.3 2.7---- 0.0------------
1961-06-30 16.8 22.2 9.6--- 1.7 4.7---- 0.0------------
1961-06-29 12.6 17.1 8.6--- 5.3 4.3---- 0.3------------
1961-06-28 13.6 24.1 11.3--- 6.0 4.7---- 13.1------------
1961-06-27 24.2 29.6 14.4--- 3.3 4.3---- 6.6------------
1961-06-26 20.0 25.6 16.2--- 2.0 4.3---- 0.0------------
1961-06-25 19.7 25.4 13.1--- 4.0 7.0---- 0.0------------
1961-06-24 15.4 20.3 11.9--- 5.0 6.0---- 0.0------------
1961-06-23 15.0 22.2 11.1--- 7.3 4.0---- 2.7------------
1961-06-22 14.2 18.3 9.6--- 3.7 2.7---- 6.1------------
1961-06-21 15.7 19.3 6.3--- 5.3 3.7---- 3.9------------
1961-06-20 12.3 17.9 8.3--- 2.0 5.0---- 0.0------------
1961-06-19 15.5 20.7 6.7--- 4.7 4.7---- 0.0------------
1961-06-18 16.8 21.1 11.7--- 5.7 4.0---- 0.0------------
1961-06-17 13.8 17.7 10.8--- 6.7 3.3---- 4.8------------
1961-06-16 11.6 14.5 10.8--- 8.0 4.0---- 17.7------------
246.6 ms

 

Źródłem pochodzenia danych jest Instytut Meteorologii i Gospodarki Wodnej – Państwowy Instytut Badawczy. Dane Instytutu Meteorologii i Gospodarki Wodnej – Państwowego Instytutu Badawczego zostały przetworzone.

Dane źródłowe można odnaleźć na stronie https://dane.imgw.pl